Time;durP1;ratioP1;P1;durP2;ratioP2;P2;SDS_P1;SDS_P2;PMS_P1;PMS_P2;Temp;Humidity;BMP_temperature;BMP_pressure;BME280_temperature;BME280_humidity;BME280_pressure;Samples;Min_cycle;Max_cycle;Signal;HPM_P1;HPM_P2
2022/11/10 00:00:05;;;;;;;9.25;3.33;;;10.90;99.90;;;;;;5050274;28;20497;-67
2022/11/10 00:02:31;;;;;;;11.48;3.92;;;10.90;99.90;;;;;;5049150;28;20041;-67
2022/11/10 00:04:57;;;;;;;9.63;3.22;;;10.80;99.90;;;;;;5050506;28;20477;-67
2022/11/10 00:07:25;;;;;;;14.60;3.60;;;10.80;99.90;;;;;;5049081;28;20049;-67
2022/11/10 00:09:51;;;;;;;10.30;3.20;;;10.80;99.90;;;;;;5049072;28;20056;-67
2022/11/10 00:12:17;;;;;;;15.40;4.47;;;10.70;99.90;;;;;;5050427;28;20037;-67
2022/11/10 00:17:27;;;;;;;14.40;3.83;;;10.70;99.90;;;;;;5050573;28;20129;-67
2022/11/10 00:19:52;;;;;;;13.43;3.50;;;10.70;99.90;;;;;;5050102;28;20165;-66
2022/11/10 00:22:18;;;;;;;7.68;3.53;;;10.70;99.90;;;;;;5050550;28;20067;-67
2022/11/10 00:24:44;;;;;;;12.82;3.92;;;10.60;99.90;;;;;;5051296;28;20041;-67
2022/11/10 00:27:09;;;;;;;11.15;4.78;;;10.60;99.90;;;;;;5052175;28;20420;-67
2022/11/10 00:29:35;;;;;;;12.73;4.70;;;10.60;99.90;;;;;;5053140;28;20044;-66
2022/11/10 00:32:00;;;;;;;12.15;4.05;;;10.60;99.90;;;;;;5053976;28;20044;-67
2022/11/10 00:34:26;;;;;;;12.68;3.83;;;10.60;99.90;;;;;;5053739;28;20098;-67
2022/11/10 00:36:51;;;;;;;10.63;3.38;;;10.50;99.90;;;;;;5053713;28;20041;-67
2022/11/10 00:39:17;;;;;;;9.48;3.65;;;10.50;99.90;;;;;;5053924;28;20037;-66
2022/11/10 00:41:43;;;;;;;12.05;4.15;;;10.40;99.90;;;;;;5053882;28;20114;-67
2022/11/10 00:44:08;;;;;;;10.88;3.60;;;10.50;99.90;;;;;;5052161;28;20114;-67
2022/11/10 00:46:34;;;;;;;6.97;3.63;;;10.40;99.90;;;;;;5053512;28;20701;-67
2022/11/10 00:48:59;;;;;;;11.88;3.90;;;10.40;99.90;;;;;;5053874;28;20049;-67
2022/11/10 00:51:27;;;;;;;15.25;4.43;;;10.50;99.90;;;;;;5053235;28;20166;-67
2022/11/10 00:53:53;;;;;;;9.38;3.83;;;10.40;99.90;;;;;;5052208;28;20045;-66
2022/11/10 00:56:20;;;;;;;16.75;3.90;;;10.40;99.90;;;;;;5053582;28;20044;-66
2022/11/10 00:58:45;;;;;;;14.52;3.95;;;10.30;99.90;;;;;;5053486;28;20053;-67
2022/11/10 01:01:12;;;;;;;16.35;4.00;;;10.40;99.90;;;;;;5053483;28;20037;-67
2022/11/10 01:03:38;;;;;;;14.05;4.43;;;10.40;99.90;;;;;;5053495;28;20172;-67
2022/11/10 01:06:09;;;;;;;13.38;3.65;;;10.40;99.90;;;;;;5053156;28;20481;-67
2022/11/10 01:08:36;;;;;;;11.18;3.97;;;10.40;99.90;;;;;;5053402;28;20048;-67
2022/11/10 01:11:23;;;;;;;15.82;4.15;;;10.30;99.90;;;;;;5053182;28;20401;-66
2022/11/10 01:13:51;;;;;;;14.52;4.00;;;10.40;99.90;;;;;;5052990;28;20037;-67
2022/11/10 01:16:22;;;;;;;16.45;3.83;;;10.30;99.90;;;;;;5052902;28;20056;-66
2022/11/10 01:18:53;;;;;;;15.43;4.47;;;10.40;99.90;;;;;;5053208;28;20039;-67
2022/11/10 01:21:19;;;;;;;12.87;4.07;;;10.30;99.90;;;;;;5053195;28;20454;-67
2022/11/10 01:23:45;;;;;;;10.43;5.20;;;10.30;99.90;;;;;;5034968;28;20132;-67
2022/11/10 01:26:11;;;;;;;7.13;3.53;;;10.30;99.90;;;;;;5053151;28;20047;-66
2022/11/10 01:28:37;;;;;;;13.63;3.70;;;10.20;99.90;;;;;;5052986;28;20514;-67
2022/11/10 01:31:05;;;;;;;11.30;3.47;;;10.20;99.90;;;;;;5051425;28;20053;-66
2022/11/10 01:33:32;;;;;;;10.75;4.40;;;10.20;99.90;;;;;;5051334;28;20045;-67
2022/11/10 01:35:58;;;;;;;15.48;3.97;;;10.30;99.90;;;;;;5051764;28;20037;-67
2022/11/10 01:38:27;;;;;;;12.10;3.83;;;10.20;99.90;;;;;;5052938;28;20112;-67
2022/11/10 01:40:52;;;;;;;13.88;3.80;;;10.30;99.90;;;;;;5052543;28;20037;-68
2022/11/10 01:43:18;;;;;;;9.70;3.97;;;10.20;99.90;;;;;;5052457;28;20037;-68
2022/11/10 01:45:47;;;;;;;12.60;3.47;;;10.20;99.90;;;;;;5052357;28;20083;-68
2022/11/10 01:48:18;;;;;;;14.75;4.68;;;10.20;99.90;;;;;;5052764;28;20115;-68
2022/11/10 01:50:46;;;;;;;11.95;3.67;;;10.20;99.90;;;;;;5052325;28;20041;-67
2022/11/10 01:53:19;;;;;;;13.98;3.47;;;10.20;99.90;;;;;;5052682;28;20041;-67
2022/11/10 01:55:46;;;;;;;11.02;3.60;;;10.20;99.90;;;;;;5052004;28;20094;-68
2022/11/10 01:58:15;;;;;;;12.07;3.85;;;10.20;99.90;;;;;;5052367;28;20056;-68
2022/11/10 02:00:41;;;;;;;11.90;3.80;;;10.20;99.90;;;;;;5052168;28;20045;-67
2022/11/10 02:03:19;;;;;;;12.82;4.25;;;10.20;99.90;;;;;;5052360;28;20033;-67
2022/11/10 02:05:44;;;;;;;15.88;3.95;;;10.20;99.90;;;;;;5052119;28;20037;-68
2022/11/10 02:08:14;;;;;;;10.40;3.55;;;10.20;99.90;;;;;;5052047;28;20110;-68
2022/11/10 02:10:40;;;;;;;15.93;4.55;;;10.20;99.90;;;;;;5052147;28;20044;-67
2022/11/10 02:13:05;;;;;;;12.02;3.92;;;10.20;99.90;;;;;;5052187;28;20598;-68
2022/11/10 02:15:31;;;;;;;15.02;3.42;;;10.20;99.90;;;;;;5052020;28;20067;-68
2022/11/10 02:17:56;;;;;;;11.07;3.40;;;10.10;99.90;;;;;;5051748;28;20489;-67
2022/11/10 02:20:22;;;;;;;13.80;3.30;;;10.20;99.90;;;;;;5051943;28;20037;-68
2022/11/10 02:22:48;;;;;;;9.93;4.20;;;10.20;99.90;;;;;;5051981;28;20040;-68
2022/11/10 02:25:18;;;;;;;12.45;3.85;;;10.20;99.90;;;;;;5051761;28;20124;-68
2022/11/10 02:27:43;;;;;;;10.45;3.50;;;10.20;99.90;;;;;;5051859;28;20059;-67
2022/11/10 02:30:10;;;;;;;11.63;3.63;;;10.10;99.90;;;;;;5051845;28;20049;-68
2022/11/10 02:32:35;;;;;;;12.45;3.30;;;10.10;99.90;;;;;;5050348;28;20563;-67
2022/11/10 02:35:01;;;;;;;19.23;4.80;;;10.10;99.90;;;;;;5051296;28;20076;-68
2022/11/10 02:37:27;;;;;;;14.48;3.95;;;10.10;99.90;;;;;;5051498;28;20068;-67
2022/11/10 02:39:52;;;;;;;13.38;4.40;;;10.10;99.90;;;;;;5051381;28;20041;-68
2022/11/10 02:42:18;;;;;;;22.17;4.20;;;10.00;99.90;;;;;;5051386;28;20039;-68
2022/11/10 02:44:43;;;;;;;16.92;3.97;;;10.10;99.90;;;;;;5051223;28;20429;-68
2022/11/10 02:47:09;;;;;;;12.50;4.70;;;10.10;99.90;;;;;;5051527;28;20044;-68
2022/11/10 02:49:34;;;;;;;10.90;4.68;;;10.10;99.90;;;;;;5051120;28;20041;-68
2022/11/10 02:52:00;;;;;;;13.60;5.50;;;10.10;99.90;;;;;;5051608;28;20041;-67
2022/11/10 02:54:25;;;;;;;15.50;4.85;;;10.10;99.90;;;;;;5051028;28;20041;-68
2022/11/10 02:56:51;;;;;;;10.18;4.57;;;10.10;99.90;;;;;;5051337;28;20037;-67
2022/11/10 02:59:17;;;;;;;16.08;4.60;;;10.10;99.90;;;;;;5050933;28;20471;-68
2022/11/10 03:01:43;;;;;;;10.85;5.13;;;10.10;99.90;;;;;;5049784;28;20045;-68
2022/11/10 03:04:08;;;;;;;16.67;5.43;;;10.10;99.90;;;;;;5050928;28;20037;-68
2022/11/10 03:06:34;;;;;;;10.20;4.70;;;10.10;99.90;;;;;;5050890;28;20045;-68
2022/11/10 03:08:59;;;;;;;15.05;4.90;;;10.10;99.90;;;;;;5051302;28;20412;-68
2022/11/10 03:11:25;;;;;;;23.08;5.32;;;10.10;99.90;;;;;;5049376;28;20513;-68
2022/11/10 03:13:50;;;;;;;13.88;5.55;;;10.20;99.90;;;;;;5049412;28;20041;-68
2022/11/10 03:16:16;;;;;;;19.40;5.63;;;10.20;99.90;;;;;;5050681;28;20080;-68
2022/11/10 03:18:42;;;;;;;17.05;5.88;;;10.10;99.90;;;;;;5050937;28;20521;-67
2022/11/10 03:21:07;;;;;;;18.60;6.35;;;10.10;99.90;;;;;;5050586;28;20041;-68
2022/11/10 03:23:34;;;;;;;19.73;6.18;;;10.20;99.90;;;;;;5050713;28;20094;-68
2022/11/10 03:26:03;;;;;;;15.48;6.20;;;10.20;99.90;;;;;;5050907;28;20397;-68
2022/11/10 03:28:28;;;;;;;23.85;6.55;;;10.20;99.90;;;;;;5050999;28;20037;-68
2022/11/10 03:30:54;;;;;;;19.08;6.13;;;10.20;99.90;;;;;;5049623;28;20056;-68
2022/11/10 03:33:20;;;;;;;17.25;6.47;;;10.10;99.90;;;;;;5050575;28;20378;-68
2022/11/10 03:35:45;;;;;;;18.58;6.65;;;10.20;99.90;;;;;;5050346;28;20045;-67
2022/11/10 03:38:11;;;;;;;14.82;6.45;;;10.20;99.90;;;;;;5050627;28;20076;-68
2022/11/10 03:40:36;;;;;;;21.25;6.47;;;10.20;99.90;;;;;;5050620;28;20045;-67
2022/11/10 03:43:02;;;;;;;17.88;7.15;;;10.20;99.90;;;;;;5050604;28;20406;-68
2022/11/10 03:45:27;;;;;;;18.45;5.75;;;10.10;99.90;;;;;;5049343;28;20041;-68
2022/11/10 03:47:53;;;;;;;20.10;6.93;;;10.10;99.90;;;;;;5050686;28;20045;-67
2022/11/10 03:50:18;;;;;;;12.98;5.82;;;10.20;99.90;;;;;;5050480;28;20489;-68
2022/11/10 03:52:45;;;;;;;20.23;6.68;;;10.20;99.90;;;;;;5050865;28;20033;-67
2022/11/10 03:55:14;;;;;;;14.98;6.50;;;10.20;99.90;;;;;;5050488;28;20077;-67
2022/11/10 03:57:39;;;;;;;19.02;6.22;;;10.10;99.90;;;;;;5050704;28;20048;-68
2022/11/10 04:00:06;;;;;;;22.38;6.32;;;10.10;99.90;;;;;;5052178;28;20033;-68
2022/11/10 04:02:31;;;;;;;12.90;5.70;;;10.10;99.90;;;;;;5054772;28;20041;-68
2022/11/10 04:10:26;;;;;;;17.73;6.32;;;10.10;99.90;;;;;;5054253;28;20517;-67
2022/11/10 04:15:42;;;;;;;18.52;6.38;;;10.10;99.90;;;;;;5052642;28;20056;-67
2022/11/10 04:18:25;;;;;;;20.10;6.30;;;10.10;99.90;;;;;;5054423;28;20123;-68
2022/11/10 04:21:11;;;;;;;18.65;6.85;;;10.10;99.90;;;;;;5053963;28;20037;-67
2022/11/10 04:23:36;;;;;;;17.67;6.45;;;10.20;99.90;;;;;;5054132;28;20037;-68
2022/11/10 04:26:28;;;;;;;23.98;7.07;;;10.20;99.90;;;;;;5053717;28;20554;-68
2022/11/10 04:28:59;;;;;;;24.97;7.43;;;10.10;99.90;;;;;;5053992;28;20048;-68
2022/11/10 04:31:27;;;;;;;20.88;7.97;;;10.10;99.90;;;;;;5053753;28;20041;-68
2022/11/10 04:33:53;;;;;;;15.95;7.55;;;10.10;99.90;;;;;;5053655;28;20041;-68
2022/11/10 04:36:22;;;;;;;18.45;8.35;;;10.10;99.90;;;;;;5053711;28;20111;-68
2022/11/10 04:38:48;;;;;;;19.60;7.90;;;10.10;99.90;;;;;;5054074;28;20393;-68
2022/11/10 04:41:14;;;;;;;26.10;8.85;;;10.10;99.90;;;;;;5053926;28;20037;-68
2022/11/10 04:43:40;;;;;;;25.83;8.75;;;10.10;99.90;;;;;;5053703;28;20063;-68
2022/11/10 04:46:09;;;;;;;17.33;7.95;;;10.00;99.90;;;;;;5053496;28;20037;-68
2022/11/10 04:48:35;;;;;;;21.05;8.93;;;10.10;99.90;;;;;;5053444;28;20535;-68
2022/11/10 04:51:05;;;;;;;19.13;8.63;;;10.10;99.90;;;;;;5053668;28;20029;-67
2022/11/10 04:53:31;;;;;;;22.55;8.80;;;10.10;99.90;;;;;;5053714;28;20045;-68
2022/11/10 04:55:56;;;;;;;23.05;8.60;;;10.10;99.90;;;;;;5053119;28;20397;-68
2022/11/10 04:58:22;;;;;;;16.77;8.50;;;10.10;99.90;;;;;;5053313;28;20087;-68
2022/11/10 05:00:47;;;;;;;21.75;8.55;;;10.10;99.90;;;;;;5053154;28;20037;-68
2022/11/10 05:03:13;;;;;;;29.13;9.57;;;10.10;99.90;;;;;;5052417;28;20037;-68
2022/11/10 05:05:39;;;;;;;23.77;9.63;;;10.10;99.90;;;;;;5051136;28;20059;-68
2022/11/10 05:08:05;;;;;;;22.10;9.30;;;10.10;99.90;;;;;;5053360;28;20048;-68
2022/11/10 05:10:32;;;;;;;22.92;9.27;;;10.10;99.90;;;;;;5051532;28;20401;-68
2022/11/10 05:12:58;;;;;;;36.33;9.27;;;10.00;99.90;;;;;;5052581;28;20052;-68
2022/11/10 05:15:24;;;;;;;17.35;8.77;;;10.10;99.90;;;;;;5052719;28;20041;-68
2022/11/10 05:17:51;;;;;;;26.70;9.05;;;10.10;99.90;;;;;;5052879;28;20564;-68
2022/11/10 05:20:17;;;;;;;26.60;10.68;;;10.20;99.90;;;;;;5053115;28;20045;-68
2022/11/10 05:22:45;;;;;;;26.33;9.88;;;10.20;99.90;;;;;;5052940;28;20083;-68
2022/11/10 05:25:11;;;;;;;23.13;9.48;;;10.10;99.90;;;;;;5052330;28;20231;-68
2022/11/10 05:27:37;;;;;;;23.85;9.98;;;10.20;99.90;;;;;;5051747;28;20128;-68
2022/11/10 05:30:02;;;;;;;26.10;10.23;;;10.20;99.90;;;;;;5052598;28;20044;-68
2022/11/10 05:32:28;;;;;;;33.67;10.68;;;10.20;99.90;;;;;;5052685;28;20049;-68
2022/11/10 05:34:53;;;;;;;27.85;10.48;;;10.20;99.90;;;;;;5051307;28;20045;-68
2022/11/10 05:37:19;;;;;;;23.08;10.60;;;10.20;99.90;;;;;;5052806;28;20510;-67
2022/11/10 05:39:44;;;;;;;27.73;9.80;;;10.20;99.90;;;;;;5052547;28;20497;-68
2022/11/10 05:42:10;;;;;;;22.60;10.35;;;10.20;99.90;;;;;;5052419;28;20037;-68
2022/11/10 05:44:35;;;;;;;20.65;9.18;;;10.10;99.90;;;;;;5052161;28;20033;-68
2022/11/10 05:47:01;;;;;;;22.60;9.85;;;10.20;99.90;;;;;;5052370;28;20040;-67
2022/11/10 05:49:27;;;;;;;20.38;9.40;;;10.20;99.90;;;;;;5052509;28;20033;-68
2022/11/10 05:51:52;;;;;;;20.58;8.82;;;10.10;99.90;;;;;;5052671;28;20064;-68
2022/11/10 05:54:18;;;;;;;18.35;9.40;;;10.20;99.90;;;;;;5052427;28;20512;-67
2022/11/10 05:56:44;;;;;;;22.73;9.93;;;10.20;99.90;;;;;;5052628;28;20505;-67
2022/11/10 05:59:10;;;;;;;17.73;9.30;;;10.20;99.90;;;;;;5052245;28;20052;-68
2022/11/10 06:01:35;;;;;;;18.52;9.30;;;10.20;99.90;;;;;;5052397;28;20393;-68
2022/11/10 06:04:01;;;;;;;22.55;9.70;;;10.10;99.90;;;;;;5052150;28;20400;-67
2022/11/10 06:06:26;;;;;;;23.23;9.13;;;10.20;99.90;;;;;;5052366;28;20116;-67
2022/11/10 06:08:52;;;;;;;22.05;9.60;;;10.20;99.90;;;;;;5051952;28;20080;-67
2022/11/10 06:11:19;;;;;;;23.83;9.40;;;10.20;99.90;;;;;;5052015;28;20041;-68
2022/11/10 06:13:44;;;;;;;23.63;9.75;;;10.20;99.90;;;;;;5051662;28;20053;-68
2022/11/10 06:16:10;;;;;;;26.92;9.07;;;10.20;99.90;;;;;;5051740;28;20405;-68
2022/11/10 06:18:35;;;;;;;22.35;9.98;;;10.20;99.90;;;;;;5052105;28;20497;-68
2022/11/10 06:21:01;;;;;;;20.60;9.48;;;10.20;99.90;;;;;;5050481;28;20431;-68
2022/11/10 06:23:26;;;;;;;27.25;9.20;;;10.20;99.90;;;;;;5051683;28;20485;-67
2022/11/10 06:25:52;;;;;;;23.73;8.88;;;10.20;99.90;;;;;;5050296;28;20029;-67
2022/11/10 06:28:17;;;;;;;29.73;10.85;;;10.20;99.90;;;;;;5051724;28;20048;-68
2022/11/10 06:30:43;;;;;;;24.20;9.30;;;10.20;99.90;;;;;;5051477;28;20041;-68
2022/11/10 06:33:08;;;;;;;18.58;8.20;;;10.20;99.90;;;;;;5051948;28;20040;-67
2022/11/10 06:35:34;;;;;;;26.25;8.75;;;10.20;99.90;;;;;;5050531;28;20037;-67
2022/11/10 06:38:09;;;;;;;23.10;9.10;;;10.20;99.90;;;;;;5048580;28;20087;-68
2022/11/10 06:40:35;;;;;;;23.33;8.63;;;10.20;99.90;;;;;;5049113;28;20076;-68
2022/11/10 06:43:01;;;;;;;18.48;8.25;;;10.20;99.90;;;;;;5048704;28;20138;-68
2022/11/10 06:45:27;;;;;;;17.90;8.02;;;10.20;99.90;;;;;;5047954;28;20434;-68
2022/11/10 06:48:04;;;;;;;25.73;8.73;;;10.20;99.90;;;;;;5048724;28;20119;-68
2022/11/10 06:50:30;;;;;;;24.02;8.55;;;10.20;99.90;;;;;;5049739;28;20055;-67
2022/11/10 06:52:57;;;;;;;25.67;9.40;;;10.20;99.90;;;;;;5051491;28;20075;-67
2022/11/10 06:55:25;;;;;;;22.70;8.32;;;10.20;99.90;;;;;;5049419;28;20136;-68
2022/11/10 06:57:51;;;;;;;19.20;8.95;;;10.20;99.90;;;;;;5050496;28;20124;-68
2022/11/10 07:00:17;;;;;;;26.23;9.40;;;10.10;99.90;;;;;;5050672;28;20044;-68
2022/11/10 07:02:42;;;;;;;28.67;8.55;;;10.20;99.90;;;;;;5050089;28;20033;-68
2022/11/10 07:05:08;;;;;;;24.30;9.55;;;10.20;99.90;;;;;;5050859;28;20033;-68
2022/11/10 07:07:33;;;;;;;27.85;8.88;;;10.20;99.90;;;;;;5051275;28;20041;-67
2022/11/10 07:09:59;;;;;;;18.10;8.75;;;10.20;99.90;;;;;;5051041;28;20079;-68
2022/11/10 07:12:25;;;;;;;19.38;8.93;;;10.20;99.90;;;;;;5051018;28;20073;-68
2022/11/10 07:14:50;;;;;;;20.95;9.02;;;10.20;99.90;;;;;;5050653;28;20501;-67
2022/11/10 07:17:16;;;;;;;22.40;9.98;;;10.20;99.90;;;;;;5051141;28;20655;-68
2022/11/10 07:19:41;;;;;;;23.70;9.40;;;10.20;99.90;;;;;;5050841;28;20524;-68
2022/11/10 07:22:07;;;;;;;20.88;9.65;;;10.20;99.90;;;;;;5050823;28;20047;-67
2022/11/10 07:24:33;;;;;;;24.35;10.32;;;10.20;99.90;;;;;;5050509;28;20076;-68
2022/11/10 07:26:59;;;;;;;22.90;8.75;;;10.30;99.90;;;;;;5050742;28;20149;-68
2022/11/10 07:29:24;;;;;;;26.95;9.75;;;10.30;99.90;;;;;;5050636;28;20505;-67
2022/11/10 07:31:51;;;;;;;22.60;10.18;;;10.30;99.90;;;;;;5049463;28;20049;-68
2022/11/10 07:34:16;;;;;;;23.23;10.15;;;10.30;99.90;;;;;;5049876;28;20040;-68
2022/11/10 07:36:42;;;;;;;31.33;9.70;;;10.30;99.90;;;;;;5050768;28;20045;-67
2022/11/10 07:39:12;;;;;;;24.27;9.65;;;10.30;99.90;;;;;;5050965;28;20036;-67
2022/11/10 07:41:37;;;;;;;22.55;9.35;;;10.40;99.90;;;;;;5050527;28;20029;-67
2022/11/10 07:44:03;;;;;;;17.05;9.90;;;10.40;99.90;;;;;;5049108;28;20068;-67
2022/11/10 07:46:28;;;;;;;26.42;9.63;;;10.40;99.90;;;;;;5050742;28;20195;-67
2022/11/10 07:48:54;;;;;;;17.80;8.25;;;10.40;99.90;;;;;;5049338;28;20045;-68
2022/11/10 07:51:20;;;;;;;22.75;9.00;;;10.40;99.90;;;;;;5050465;28;20052;-67
2022/11/10 07:53:45;;;;;;;18.13;8.35;;;10.40;99.90;;;;;;5050365;28;20123;-68
2022/11/10 07:56:11;;;;;;;21.80;9.25;;;10.40;99.90;;;;;;5050291;28;20041;-67
2022/11/10 07:58:36;;;;;;;27.45;9.00;;;10.50;99.90;;;;;;5049157;28;20072;-67
2022/11/10 08:01:02;;;;;;;22.70;8.95;;;10.40;99.90;;;;;;5050513;28;20041;-67
2022/11/10 08:03:28;;;;;;;21.80;9.88;;;10.40;99.90;;;;;;5050407;28;20041;-67
2022/11/10 08:05:54;;;;;;;22.88;9.15;;;10.50;99.90;;;;;;5050186;28;20075;-67
2022/11/10 08:08:20;;;;;;;19.17;8.45;;;10.50;99.90;;;;;;5050322;28;20540;-67
2022/11/10 08:10:46;;;;;;;22.15;9.15;;;10.50;99.90;;;;;;5050218;28;20076;-67
2022/11/10 08:13:12;;;;;;;19.42;8.35;;;10.40;99.90;;;;;;5050083;28;20044;-68
2022/11/10 08:15:39;;;;;;;32.58;9.85;;;10.50;99.90;;;;;;5050277;28;20037;-67
2022/11/10 08:18:07;;;;;;;23.73;9.88;;;10.50;99.90;;;;;;5050007;28;20057;-68
2022/11/10 08:20:33;;;;;;;20.23;9.25;;;10.50;99.90;;;;;;5050446;28;20044;-67
2022/11/10 08:23:03;;;;;;;24.92;8.95;;;10.50;99.90;;;;;;5050355;28;20405;-67
2022/11/10 08:25:32;;;;;;;23.13;9.43;;;10.50;99.90;;;;;;5048919;28;20045;-67
2022/11/10 08:28:06;;;;;;;22.65;8.40;;;10.50;99.90;;;;;;5050446;28;20452;-67
2022/11/10 08:30:34;;;;;;;23.38;8.25;;;10.50;99.90;;;;;;5050048;28;20430;-68
2022/11/10 08:33:00;;;;;;;23.25;8.80;;;10.60;99.90;;;;;;5050278;28;20124;-67
2022/11/10 08:35:29;;;;;;;16.67;8.80;;;10.60;99.90;;;;;;5049790;28;20391;-67
2022/11/10 08:37:55;;;;;;;18.75;7.32;;;10.60;99.90;;;;;;5050044;28;20044;-68
2022/11/10 08:40:23;;;;;;;21.17;9.00;;;10.70;99.90;;;;;;5049094;28;20409;-66
2022/11/10 08:42:58;;;;;;;20.83;8.63;;;10.80;99.90;;;;;;5050329;28;20037;-67
2022/11/10 08:45:24;;;;;;;23.48;7.97;;;10.80;99.90;;;;;;5049445;28;20386;-67
2022/11/10 08:47:57;;;;;;;24.55;8.55;;;10.80;99.90;;;;;;5053814;28;20045;-67
2022/11/10 08:50:23;;;;;;;25.13;8.63;;;10.80;99.90;;;;;;5053602;28;20067;-67
2022/11/10 08:52:48;;;;;;;21.92;8.27;;;10.90;99.90;;;;;;5053807;28;20478;-67
2022/11/10 08:55:14;;;;;;;19.02;7.70;;;10.90;99.90;;;;;;5053461;28;20158;-66
2022/11/10 08:57:40;;;;;;;21.13;8.77;;;11.00;99.90;;;;;;5053562;28;20045;-67
2022/11/10 09:00:06;;;;;;;20.10;7.70;;;11.10;99.90;;;;;;5053592;28;20037;-67
2022/11/10 09:02:32;;;;;;;22.13;7.20;;;11.10;99.90;;;;;;5052885;28;20041;-67
2022/11/10 09:04:57;;;;;;;22.35;7.25;;;11.20;99.90;;;;;;5053271;28;20413;-67
2022/11/10 09:07:23;;;;;;;21.17;7.00;;;11.20;99.90;;;;;;5053357;28;20045;-67
2022/11/10 09:09:48;;;;;;;15.30;6.88;;;11.20;99.90;;;;;;5051862;28;20051;-67
2022/11/10 09:12:14;;;;;;;19.23;7.13;;;11.20;99.90;;;;;;5053236;28;20041;-67
2022/11/10 09:14:39;;;;;;;18.23;5.88;;;11.20;99.90;;;;;;5052923;28;20384;-66
2022/11/10 09:17:05;;;;;;;18.88;6.15;;;11.30;99.90;;;;;;5053096;28;20100;-67
2022/11/10 09:19:31;;;;;;;19.23;5.85;;;11.30;99.90;;;;;;5053181;28;20493;-66
2022/11/10 09:21:56;;;;;;;20.30;6.22;;;11.30;99.90;;;;;;5052974;28;20033;-67
2022/11/10 09:24:22;;;;;;;21.58;6.20;;;11.30;99.90;;;;;;5051236;28;20501;-67
2022/11/10 09:26:47;;;;;;;17.70;5.97;;;11.30;99.90;;;;;;5053060;28;20047;-67
2022/11/10 09:29:13;;;;;;;22.95;6.25;;;11.40;99.90;;;;;;5052801;28;20432;-67
2022/11/10 09:31:38;;;;;;;14.07;5.30;;;11.40;99.90;;;;;;5052805;28;20045;-66
2022/11/10 09:34:04;;;;;;;16.35;6.28;;;11.40;99.90;;;;;;5052320;28;20052;-66
2022/11/10 09:36:30;;;;;;;22.20;6.20;;;11.50;99.90;;;;;;5052877;28;20401;-67
2022/11/10 09:38:55;;;;;;;19.58;4.72;;;11.50;99.90;;;;;;5052772;28;20029;-67
2022/11/10 09:41:21;;;;;;;21.30;5.55;;;11.60;99.90;;;;;;5052723;28;20058;-66
2022/11/10 09:44:11;;;;;;;20.00;4.80;;;11.60;99.90;;;;;;5052399;28;20116;-67
2022/11/10 09:46:45;;;;;;;14.27;5.10;;;11.60;99.90;;;;;;5052768;28;20047;-66
2022/11/10 09:49:37;;;;;;;14.77;4.97;;;11.70;99.90;;;;;;5052852;28;20048;-66
2022/11/10 09:52:04;;;;;;;15.02;4.72;;;11.70;99.90;;;;;;5052493;28;20086;-66
2022/11/10 09:54:50;;;;;;;26.63;4.95;;;11.80;99.90;;;;;;5052248;28;20159;-67
2022/11/10 09:57:19;;;;;;;17.90;5.00;;;11.80;99.90;;;;;;5051478;28;20053;-66
2022/11/10 09:59:44;;;;;;;15.27;4.30;;;11.80;99.90;;;;;;5052107;28;20036;-67
2022/11/10 10:02:34;;;;;;;17.80;4.50;;;11.90;99.90;;;;;;5052261;28;20037;-66
2022/11/10 10:05:27;;;;;;;26.60;5.32;;;11.90;99.90;;;;;;5052289;28;20044;-66
2022/11/10 10:08:04;;;;;;;17.65;5.35;;;12.00;99.90;;;;;;5052342;28;20040;-67
2022/11/10 10:10:43;;;;;;;17.38;4.07;;;12.00;99.90;;;;;;5052257;28;20094;-67
2022/11/10 10:13:43;;;;;;;17.40;4.18;;;12.10;99.90;;;;;;5052200;28;20076;-66
2022/11/10 10:16:35;;;;;;;19.98;4.30;;;12.20;99.90;;;;;;5052135;28;20056;-67
2022/11/10 10:19:42;;;;;;;15.00;3.80;;;12.20;99.90;;;;;;5052165;28;20041;-67
2022/11/10 10:22:23;;;;;;;11.18;3.92;;;12.30;99.90;;;;;;5051589;28;20699;-67
2022/11/10 10:24:55;;;;;;;12.20;3.90;;;12.30;99.90;;;;;;5051722;28;20391;-66
2022/11/10 10:27:24;;;;;;;17.85;4.03;;;12.40;99.90;;;;;;5052036;28;20041;-66
2022/11/10 10:29:50;;;;;;;13.05;3.83;;;12.40;99.90;;;;;;5051737;28;20055;-67
2022/11/10 10:32:17;;;;;;;19.13;4.05;;;12.50;99.90;;;;;;5050384;28;20102;-67
2022/11/10 10:34:44;;;;;;;15.43;4.22;;;12.40;99.90;;;;;;5051201;28;20493;-66
2022/11/10 10:37:44;;;;;;;12.40;3.58;;;12.50;99.90;;;;;;5051518;28;20067;-67
2022/11/10 10:40:16;;;;;;;17.33;4.28;;;12.50;99.90;;;;;;5051522;28;20041;-67
2022/11/10 10:42:42;;;;;;;18.30;4.10;;;12.60;99.90;;;;;;5051554;28;20048;-66
2022/11/10 10:45:11;;;;;;;11.32;3.20;;;12.60;99.90;;;;;;5050919;28;20029;-66
2022/11/10 10:47:38;;;;;;;13.90;4.28;;;12.60;99.90;;;;;;5051890;28;20661;-66
2022/11/10 10:50:31;;;;;;;14.63;3.90;;;12.60;99.90;;;;;;5051564;28;20041;-67
2022/11/10 10:53:14;;;;;;;14.38;4.18;;;12.60;99.90;;;;;;5051741;28;20048;-66
2022/11/10 10:56:01;;;;;;;16.60;3.88;;;12.60;99.90;;;;;;5051077;28;20049;-67
2022/11/10 10:58:54;;;;;;;14.20;4.00;;;12.70;99.90;;;;;;5049838;28;20056;-66
2022/11/10 11:01:29;;;;;;;13.25;4.03;;;12.70;99.90;;;;;;5047534;28;20691;-66
2022/11/10 11:03:55;;;;;;;28.35;5.57;;;12.70;99.90;;;;;;5051047;28;20075;-66
2022/11/10 11:06:33;;;;;;;21.08;5.07;;;12.80;99.90;;;;;;5051164;28;20497;-66
2022/11/10 11:09:27;;;;;;;10.15;3.65;;;12.80;99.90;;;;;;5050508;28;20379;-67
2022/11/10 11:12:02;;;;;;;15.23;3.90;;;12.80;99.90;;;;;;5049413;28;20079;-67
2022/11/10 11:14:28;;;;;;;16.15;3.72;;;12.80;99.90;;;;;;5050698;28;20540;-66
2022/11/10 11:17:17;;;;;;;19.20;3.75;;;12.80;99.90;;;;;;5051005;28;20116;-66
2022/11/10 11:19:43;;;;;;;18.50;3.63;;;12.90;99.90;;;;;;5047691;28;20049;-67
2022/11/10 11:22:48;;;;;;;15.68;4.20;;;12.90;99.90;;;;;;5050696;28;20455;-67
2022/11/10 11:25:36;;;;;;;14.93;3.25;;;13.00;99.90;;;;;;5050674;28;20052;-67
2022/11/10 11:28:25;;;;;;;16.77;3.63;;;13.00;99.90;;;;;;5051043;28;20044;-66
2022/11/10 11:31:18;;;;;;;16.85;3.85;;;13.00;99.90;;;;;;5051021;28;20036;-66
2022/11/10 11:34:14;;;;;;;25.13;3.63;;;13.00;99.90;;;;;;5050665;28;20037;-67
2022/11/10 11:36:46;;;;;;;9.95;3.03;;;13.00;99.90;;;;;;5050692;28;20049;-66
2022/11/10 11:39:18;;;;;;;10.93;3.77;;;13.10;99.90;;;;;;5050862;28;20037;-67
2022/11/10 11:42:02;;;;;;;16.67;3.47;;;13.00;99.90;;;;;;5050535;28;20748;-67
2022/11/10 11:44:39;;;;;;;17.23;3.13;;;13.10;99.90;;;;;;5050196;28;20643;-67
2022/11/10 11:47:27;;;;;;;13.57;3.70;;;13.10;99.90;;;;;;5050921;28;20048;-66
2022/11/10 11:50:01;;;;;;;15.50;3.63;;;13.20;99.90;;;;;;5050642;28;20044;-66
2022/11/10 11:52:36;;;;;;;21.95;3.80;;;13.20;99.90;;;;;;5050726;28;20037;-66
2022/11/10 11:55:18;;;;;;;16.00;4.28;;;13.20;99.90;;;;;;5050254;28;20041;-66
2022/11/10 11:58:05;;;;;;;19.87;3.97;;;13.30;99.90;;;;;;5049052;28;20060;-67
2022/11/10 12:00:55;;;;;;;13.32;3.30;;;13.30;99.90;;;;;;5049087;28;20037;-67
2022/11/10 12:03:46;;;;;;;15.10;2.97;;;13.30;99.90;;;;;;5050509;28;20037;-67
2022/11/10 12:06:24;;;;;;;15.60;3.55;;;13.30;99.90;;;;;;5050251;28;20037;-66
2022/11/10 12:09:00;;;;;;;30.17;3.05;;;13.40;99.90;;;;;;5050382;28;20478;-66
2022/11/10 12:11:41;;;;;;;14.85;2.80;;;13.40;99.90;;;;;;5050483;28;20178;-66
2022/11/10 12:14:30;;;;;;;13.00;2.85;;;13.40;99.90;;;;;;5050362;28;20037;-66
2022/11/10 12:17:04;;;;;;;11.38;2.88;;;13.40;99.90;;;;;;5050520;28;20044;-67
2022/11/10 12:19:46;;;;;;;11.48;2.70;;;13.50;99.90;;;;;;5050664;28;20447;-66
2022/11/10 12:22:38;;;;;;;11.50;2.50;;;13.50;99.90;;;;;;5053882;28;20040;-66
2022/11/10 12:25:28;;;;;;;17.58;3.22;;;13.50;99.90;;;;;;5053851;28;20059;-66
2022/11/10 12:28:19;;;;;;;12.57;2.53;;;13.60;99.90;;;;;;5054262;28;20485;-66
2022/11/10 12:30:48;;;;;;;19.52;3.00;;;13.60;99.90;;;;;;5054087;28;20052;-66
2022/11/10 12:33:32;;;;;;;13.95;3.20;;;13.50;99.90;;;;;;5053929;28;20076;-66
2022/11/10 12:36:01;;;;;;;8.90;2.25;;;13.60;99.90;;;;;;5052527;28;20149;-67
2022/11/10 12:38:33;;;;;;;17.08;2.47;;;13.60;99.90;;;;;;5053715;28;20033;-66
2022/11/10 12:41:09;;;;;;;12.13;2.72;;;13.60;99.90;;;;;;5052722;28;20069;-67
2022/11/10 12:43:42;;;;;;;13.65;2.55;;;13.70;99.90;;;;;;5053479;28;20056;-67
2022/11/10 12:46:11;;;;;;;14.20;2.53;;;13.70;99.90;;;;;;5052413;28;20383;-66
2022/11/10 12:48:55;;;;;;;19.05;2.38;;;13.70;99.90;;;;;;5053458;28;20135;-66
2022/11/10 12:51:31;;;;;;;10.05;2.90;;;13.60;99.90;;;;;;5053592;28;20102;-66
2022/11/10 12:53:57;;;;;;;10.05;2.28;;;13.70;99.90;;;;;;5053322;28;20143;-66
2022/11/10 12:56:27;;;;;;;10.23;2.42;;;13.70;99.90;;;;;;5053675;28;20116;-66
2022/11/10 12:59:20;;;;;;;12.48;2.55;;;13.60;99.90;;;;;;5053357;28;20037;-66